KRKD/RKD METAR and TAF weather

Enter ICAO airport designator
Station Type Date Time Source
KRKD METAR 2020/04/06 10:56 UTC NOAA

KRKD 061056Z AUTO 36004KT 10SM CLR 04/M01 A2994 RMK AO2 SLP139 T00391006


Station Type Date Time Source
KRKD Decoded METAR 2020/04/06 10:56 UTC NOAA

Rockland, Knox County Regional Airport, ME, United States (KRKD) 44-04N 069-06W
Apr 06, 2020 - 06:56 AM EDT / 2020.04.06 1056 UTC
Wind: from the N (360 degrees) at 5 MPH (4 KT):0
Visibility: 10 mile(s):0
Sky conditions: clear
Temperature: 39.0 F (3.9 C)
Dew Point: 30.9 F (-0.6 C)
Relative Humidity: 72%
Pressure (altimeter): 29.94 in. Hg (1013 hPa)
ob: KRKD 061056Z AUTO 36004KT 10SM CLR 04/M01 A2994 RMK AO2 SLP139 T00391006
cycle: 11

Station Type Date Time Source
KRKD TAF 2020/04/06 06:27 UTC NOAA

TAF KRKD 060525Z 0606/0706 27007KT P6SM SCT040
FM061600 29012G19KT P6SM SKC
FM070000 VRB04KT P6SM SKC

Example: see airport list